Time;durP1;ratioP1;P1;durP2;ratioP2;P2;SDS_P1;SDS_P2;PMS_P1;PMS_P2;Temp;Humidity;BMP_temperature;BMP_pressure;BME280_temperature;BME280_humidity;BME280_pressure;Samples;Min_cycle;Max_cycle;Signal;HPM_P1;HPM_P2
2023/09/21 00:00:58;;;;;;;5.13;4.00;;;;;;;20.33;72.34;99961.03;5056596;28;20045;-66
2023/09/21 00:03:26;;;;;;;8.45;4.20;;;;;;;20.33;71.95;99959.16;5056260;28;20037;-64
2023/09/21 00:05:52;;;;;;;5.63;3.83;;;;;;;20.42;71.52;99964.28;5056333;28;20094;-64
2023/09/21 00:08:17;;;;;;;5.90;3.75;;;;;;;20.53;71.31;99963.56;5056236;28;20044;-66
2023/09/21 00:10:43;;;;;;;7.35;4.30;;;;;;;20.62;71.96;99962.22;5056603;28;20040;-64
2023/09/21 00:13:09;;;;;;;7.32;5.05;;;;;;;20.71;71.80;99969.78;5056185;28;20232;-66
2023/09/21 00:15:34;;;;;;;4.88;4.35;;;;;;;20.75;72.20;99964.78;5054768;28;20055;-64
2023/09/21 00:18:00;;;;;;;6.30;4.45;;;;;;;20.92;72.63;99971.25;5056403;28;20152;-64
2023/09/21 00:20:36;;;;;;;7.57;5.15;;;;;;;21.00;72.94;99973.66;5055096;28;20056;-64
2023/09/21 00:23:06;;;;;;;7.25;4.70;;;;;;;21.08;72.83;99975.22;5056407;28;20040;-65
2023/09/21 00:25:32;;;;;;;9.77;5.13;;;;;;;21.10;73.32;99973.13;5055112;28;20112;-66
2023/09/21 00:27:57;;;;;;;8.65;5.07;;;;;;;21.11;73.01;99965.88;5055806;28;20071;-64
2023/09/21 00:30:23;;;;;;;9.85;5.03;;;;;;;21.17;72.52;99973.88;5056108;28;20103;-66
2023/09/21 00:32:48;;;;;;;8.57;4.93;;;;;;;21.20;72.36;99969.91;5056091;28;20048;-64
2023/09/21 00:35:16;;;;;;;6.97;5.10;;;;;;;21.23;70.92;99969.50;5056410;28;20048;-66
2023/09/21 00:37:42;;;;;;;7.00;4.30;;;;;;;21.26;69.56;99967.16;5056529;28;20041;-64
2023/09/21 00:40:20;;;;;;;5.07;3.97;;;;;;;21.27;68.60;99968.00;5054666;28;20050;-66
2023/09/21 00:42:46;;;;;;;7.70;4.50;;;;;;;21.23;68.05;99964.94;5055709;28;20044;-66
2023/09/21 00:45:13;;;;;;;5.55;4.05;;;;;;;21.08;69.66;99964.47;5055678;28;20049;-64
2023/09/21 00:47:45;;;;;;;6.47;4.32;;;;;;;20.94;69.88;99962.97;5055740;28;20040;-63
2023/09/21 00:50:12;;;;;;;6.85;4.22;;;;;;;20.80;70.06;99964.94;5059193;28;20266;-66
2023/09/21 00:52:44;;;;;;;9.85;4.72;;;;;;;20.83;70.00;99964.53;5073610;28;20044;-64
2023/09/21 00:55:23;;;;;;;7.03;4.35;;;;;;;20.83;70.29;99961.84;5077432;28;20257;-64
2023/09/21 00:57:55;;;;;;;8.02;4.97;;;;;;;20.78;71.58;99947.38;5077654;28;20119;-66
2023/09/21 01:00:25;;;;;;;7.38;4.80;;;;;;;20.71;71.69;99953.66;5077673;28;20060;-66
2023/09/21 01:02:53;;;;;;;5.88;4.32;;;;;;;20.78;71.37;99955.44;5078214;28;20221;-64
2023/09/21 01:05:21;;;;;;;5.05;3.90;;;;;;;20.79;69.92;99955.22;5078038;28;20051;-64
2023/09/21 01:07:48;;;;;;;8.88;4.93;;;;;;;20.80;68.69;99958.75;5078078;28;20308;-64
2023/09/21 01:10:13;;;;;;;6.75;4.40;;;;;;;20.77;70.32;99957.31;5077189;28;20082;-64
2023/09/21 01:12:49;;;;;;;7.72;4.38;;;;;;;20.68;71.45;99956.78;5077779;28;20044;-66
2023/09/21 01:15:15;;;;;;;6.65;4.75;;;;;;;20.73;70.70;99962.31;5077548;28;20042;-64
2023/09/21 01:17:45;;;;;;;4.97;3.88;;;;;;;20.72;69.42;99962.53;5077952;28;20036;-66
2023/09/21 01:20:27;;;;;;;7.35;4.18;;;;;;;20.75;68.80;99969.34;5077383;28;20091;-66
2023/09/21 01:23:10;;;;;;;7.00;4.20;;;;;;;20.67;68.59;99963.22;5077622;28;20075;-66
2023/09/21 01:25:40;;;;;;;8.05;4.78;;;;;;;20.69;69.67;99968.38;5077284;28;20036;-64
2023/09/21 01:28:10;;;;;;;7.75;4.40;;;;;;;20.68;71.88;99969.41;5077565;28;20036;-66
2023/09/21 01:30:37;;;;;;;8.80;4.80;;;;;;;20.61;72.50;99969.47;5077347;28;20028;-64
2023/09/21 01:33:04;;;;;;;6.65;4.25;;;;;;;20.64;72.05;99973.59;5077401;28;20068;-66
2023/09/21 01:35:31;;;;;;;5.78;4.63;;;;;;;20.63;71.92;99975.47;5077268;28;20126;-64
2023/09/21 01:37:57;;;;;;;8.63;5.15;;;;;;;20.61;71.79;99971.34;5077079;28;20036;-64
2023/09/21 01:40:23;;;;;;;8.52;4.63;;;;;;;20.68;71.28;99964.03;5077221;28;20123;-64
2023/09/21 01:42:48;;;;;;;8.25;5.00;;;;;;;20.67;71.28;99962.38;5077137;28;20041;-64
2023/09/21 01:45:16;;;;;;;8.43;4.93;;;;;;;20.65;70.95;99956.41;5076671;28;20211;-66
2023/09/21 01:47:41;;;;;;;6.40;4.82;;;;;;;20.73;71.02;99966.88;5076747;28;20055;-64
2023/09/21 01:50:11;;;;;;;8.25;4.60;;;;;;;20.70;70.55;99961.94;5076859;28;20037;-64
2023/09/21 01:52:37;;;;;;;7.30;5.00;;;;;;;20.74;69.44;99968.53;5061815;28;20072;-66
2023/09/21 01:55:10;;;;;;;6.65;4.45;;;;;;;20.67;69.40;99971.28;5056949;28;20315;-66
2023/09/21 01:57:36;;;;;;;6.80;4.40;;;;;;;20.63;69.29;99964.69;5057063;28;20231;-66
2023/09/21 02:00:11;;;;;;;6.38;4.03;;;;;;;20.54;68.95;99962.53;5056605;28;20116;-63
2023/09/21 02:02:37;;;;;;;7.50;4.60;;;;;;;20.30;69.62;99964.16;5056451;28;20041;-64
2023/09/21 02:05:04;;;;;;;8.07;4.53;;;;;;;20.20;70.34;99958.44;5056691;28;20106;-66
2023/09/21 02:07:29;;;;;;;6.50;4.28;;;;;;;20.20;70.87;99951.19;5056450;28;20100;-66
2023/09/21 02:09:56;;;;;;;5.95;4.28;;;;;;;19.99;71.54;99956.94;5056539;28;20076;-64
2023/09/21 02:12:23;;;;;;;6.68;4.22;;;;;;;19.97;72.31;99945.59;5056561;28;20079;-64
2023/09/21 02:14:49;;;;;;;8.32;4.43;;;;;;;20.00;71.95;99943.28;5056198;28;20104;-64
2023/09/21 02:17:14;;;;;;;13.98;4.93;;;;;;;19.93;71.74;99942.53;5056207;28;20029;-66
2023/09/21 02:19:41;;;;;;;9.63;5.63;;;;;;;19.95;72.72;99948.50;5056254;28;20032;-65
2023/09/21 02:22:07;;;;;;;10.60;5.07;;;;;;;19.96;72.84;99950.16;5055695;28;20035;-64
2023/09/21 02:24:35;;;;;;;9.90;4.60;;;;;;;19.99;72.48;99948.88;5056137;28;20151;-64
2023/09/21 02:27:00;;;;;;;10.00;4.53;;;;;;;19.99;72.37;99941.66;5057491;28;20037;-64
2023/09/21 02:29:26;;;;;;;7.88;4.85;;;;;;;20.02;72.65;99941.22;5056355;28;20041;-64
2023/09/21 02:31:52;;;;;;;9.27;4.68;;;;;;;20.08;72.95;99942.19;5055994;28;20106;-66
2023/09/21 02:34:18;;;;;;;9.07;4.95;;;;;;;20.09;72.33;99941.97;5056226;28;20342;-64
2023/09/21 02:36:45;;;;;;;11.27;5.10;;;;;;;20.14;72.80;99946.69;5055948;28;20037;-66
2023/09/21 02:39:11;;;;;;;9.68;4.72;;;;;;;20.18;71.91;99955.97;5056159;28;20036;-64
2023/09/21 02:41:37;;;;;;;10.93;5.60;;;;;;;20.25;73.08;99956.75;5055625;28;20036;-66
2023/09/21 02:44:04;;;;;;;13.02;5.60;;;;;;;20.31;73.31;99952.34;5055920;28;20044;-64
2023/09/21 02:46:30;;;;;;;11.23;5.43;;;;;;;20.38;73.20;99958.50;5055758;28;20041;-64
2023/09/21 02:48:57;;;;;;;9.68;5.38;;;;;;;20.35;73.32;99950.88;5055691;28;20346;-64
2023/09/21 02:51:23;;;;;;;9.57;5.47;;;;;;;20.37;73.51;99946.09;5060409;28;20052;-64
2023/09/21 02:53:48;;;;;;;12.50;5.70;;;;;;;20.43;73.49;99947.09;5075779;28;20338;-66
2023/09/21 02:56:19;;;;;;;13.77;5.60;;;;;;;20.48;73.47;99961.53;5075826;28;20036;-66
2023/09/21 02:58:45;;;;;;;19.50;5.47;;;;;;;20.51;73.42;99961.09;5075493;28;20108;-66
2023/09/21 03:01:11;;;;;;;12.52;5.70;;;;;;;20.54;73.29;99959.81;5075428;28;20051;-66
2023/09/21 03:03:37;;;;;;;13.35;5.75;;;;;;;20.46;73.77;99955.56;5076255;28;20031;-64
2023/09/21 03:06:03;;;;;;;10.02;5.60;;;;;;;20.48;73.86;99955.34;5076235;28;20288;-64
2023/09/21 03:08:28;;;;;;;7.90;5.00;;;;;;;20.52;73.05;99962.75;5076003;28;20397;-64
2023/09/21 03:10:54;;;;;;;10.43;5.32;;;;;;;20.44;73.03;99968.41;5075763;28;20059;-66
2023/09/21 03:13:21;;;;;;;8.73;5.15;;;;;;;20.33;73.32;99974.47;5076258;28;20082;-64
2023/09/21 03:15:51;;;;;;;9.85;4.95;;;;;;;20.15;74.20;99974.41;5076284;28;20142;-64
2023/09/21 03:18:18;;;;;;;10.98;5.53;;;;;;;20.13;74.02;99981.88;5076588;28;20071;-66
2023/09/21 03:20:45;;;;;;;7.50;4.78;;;;;;;20.08;74.22;99977.16;5076262;28;20131;-65
2023/09/21 03:23:12;;;;;;;9.27;5.18;;;;;;;20.05;74.51;99989.16;5076133;28;20264;-64
2023/09/21 03:25:42;;;;;;;8.82;4.95;;;;;;;20.01;74.83;99995.19;5075955;28;20036;-66
2023/09/21 03:28:15;;;;;;;8.60;5.65;;;;;;;19.99;74.92;99989.22;5066820;28;20041;-64
2023/09/21 03:30:46;;;;;;;9.70;5.63;;;;;;;19.98;74.64;99983.00;5076548;28;20037;-64
2023/09/21 03:33:14;;;;;;;10.80;5.30;;;;;;;19.98;74.78;99984.88;5075631;28;20453;-64
2023/09/21 03:35:40;;;;;;;10.38;5.35;;;;;;;19.95;74.43;99972.69;5075670;28;20036;-66
2023/09/21 03:38:06;;;;;;;9.70;5.60;;;;;;;19.93;74.35;99982.00;5076128;28;20040;-66
2023/09/21 03:40:35;;;;;;;11.85;5.70;;;;;;;19.81;75.06;99979.19;5076136;28;20049;-63
2023/09/21 03:43:00;;;;;;;18.63;6.25;;;;;;;19.56;76.15;99992.53;5076150;28;20272;-66
2023/09/21 03:45:26;;;;;;;14.25;6.28;;;;;;;19.24;77.75;99982.72;5075833;28;20036;-66
2023/09/21 03:47:53;;;;;;;12.02;6.40;;;;;;;19.14;78.94;99978.63;5075445;28;20048;-64
2023/09/21 03:50:19;;;;;;;10.23;6.15;;;;;;;19.24;79.09;99988.94;5075883;28;20310;-64
2023/09/21 03:52:45;;;;;;;11.23;6.05;;;;;;;19.33;78.10;99986.81;5075941;28;20365;-64
2023/09/21 03:55:17;;;;;;;8.75;5.40;;;;;;;19.30;78.97;99979.19;5075761;28;20033;-64
2023/09/21 03:57:46;;;;;;;9.68;6.05;;;;;;;19.44;78.15;99983.47;5075934;28;20104;-64
2023/09/21 04:02:50;;;;;;;14.80;6.25;;;;;;;19.62;76.93;99985.47;5069044;28;20032;-66
2023/09/21 04:05:18;;;;;;;14.45;5.68;;;;;;;19.63;75.77;99987.94;5076261;28;20104;-66
2023/09/21 04:07:48;;;;;;;12.32;6.22;;;;;;;19.70;75.70;99986.06;5075827;28;20050;-64
2023/09/21 04:10:14;;;;;;;17.58;5.72;;;;;;;19.66;76.45;99982.16;5075974;28;20040;-65
2023/09/21 04:12:40;;;;;;;14.70;6.03;;;;;;;19.70;75.58;99980.69;5076276;28;20063;-66
2023/09/21 04:15:07;;;;;;;17.17;6.70;;;;;;;19.76;74.30;99979.00;5076066;28;20029;-64
2023/09/21 04:17:34;;;;;;;15.23;6.10;;;;;;;19.82;74.54;99980.03;5076760;28;20036;-64
2023/09/21 04:19:59;;;;;;;19.33;6.70;;;;;;;19.89;75.29;99981.63;5072752;28;20034;-66
2023/09/21 04:22:25;;;;;;;17.50;6.38;;;;;;;19.94;74.79;99984.47;5076284;28;20060;-66
2023/09/21 04:24:51;;;;;;;403.05;47.65;;;;;;;20.00;74.43;99990.84;5079604;28;20040;-65
2023/09/21 04:27:17;;;;;;;24.23;8.43;;;;;;;20.00;74.86;99986.31;5080307;28;20052;-66
2023/09/21 04:29:43;;;;;;;13.77;7.13;;;;;;;20.00;74.84;99998.91;5079950;28;20028;-63
2023/09/21 04:32:09;;;;;;;30.10;7.57;;;;;;;19.94;74.93;100005.16;5080313;28;20056;-66
2023/09/21 04:34:36;;;;;;;23.38;6.93;;;;;;;19.76;76.33;99998.63;5080067;28;20297;-66
2023/09/21 04:37:02;;;;;;;41.13;8.70;;;;;;;19.82;76.30;99996.97;5079957;28;20040;-66
2023/09/21 04:39:27;;;;;;;28.48;7.43;;;;;;;19.93;76.29;100001.66;5079358;28;20055;-64
2023/09/21 04:41:53;;;;;;;28.92;8.00;;;;;;;20.07;76.00;99992.47;5079185;28;20500;-66
2023/09/21 04:44:18;;;;;;;26.05;7.20;;;;;;;20.19;75.81;99986.38;5070496;28;20048;-66
2023/09/21 04:46:44;;;;;;;23.83;7.35;;;;;;;20.29;75.20;99986.72;5079138;28;20040;-64
2023/09/21 04:49:10;;;;;;;19.02;7.38;;;;;;;20.40;75.82;99992.22;5078911;28;20320;-64
2023/09/21 04:51:35;;;;;;;23.92;6.68;;;;;;;20.50;75.40;99986.34;5078843;28;20070;-63
2023/09/21 04:54:01;;;;;;;17.83;6.90;;;;;;;20.52;76.52;99989.63;5079086;28;20051;-64
2023/09/21 04:56:27;;;;;;;17.85;7.63;;;;;;;20.48;77.56;99980.38;5079304;28;20028;-64
2023/09/21 04:58:55;;;;;;;18.35;7.25;;;;;;;20.43;77.77;99985.59;5078870;28;20036;-64
2023/09/21 05:01:24;;;;;;;34.22;9.43;;;;;;;20.46;78.60;99978.94;5079234;28;20112;-66
2023/09/21 05:03:49;;;;;;;34.90;8.93;;;;;;;20.40;79.73;99984.16;5078889;28;20024;-66
2023/09/21 05:06:16;;;;;;;22.08;7.55;;;;;;;20.36;78.74;99992.84;5078688;28;20045;-64
2023/09/21 05:08:41;;;;;;;20.35;7.18;;;;;;;20.32;78.61;99994.34;5078297;28;20039;-64
2023/09/21 05:11:07;;;;;;;11.30;6.68;;;;;;;20.26;79.40;99982.59;5078763;28;20048;-64
2023/09/21 05:13:32;;;;;;;10.32;6.22;;;;;;;20.19;80.00;99987.19;5078318;28;20047;-66
2023/09/21 05:15:59;;;;;;;8.23;5.72;;;;;;;20.14;79.48;99987.03;5078829;28;20032;-64
2023/09/21 05:18:25;;;;;;;7.65;6.20;;;;;;;20.10;80.21;99980.44;5078634;28;20055;-64
2023/09/21 05:20:50;;;;;;;10.02;6.13;;;;;;;20.04;80.74;99984.81;5078871;28;20037;-64
2023/09/21 05:23:15;;;;;;;10.90;6.43;;;;;;;20.07;81.33;99978.19;5078495;28;20033;-66
2023/09/21 05:25:41;;;;;;;11.05;6.32;;;;;;;20.15;81.56;99974.41;5078639;28;20040;-66
2023/09/21 05:28:07;;;;;;;11.45;6.10;;;;;;;20.13;81.11;99973.81;5078911;28;20039;-66
2023/09/21 05:30:32;;;;;;;9.65;5.60;;;;;;;20.12;81.24;99967.59;5078844;28;20062;-65
2023/09/21 05:33:00;;;;;;;10.20;6.00;;;;;;;20.16;80.53;99971.50;5078916;28;20028;-64
2023/09/21 05:35:27;;;;;;;7.63;5.47;;;;;;;20.15;80.62;99977.91;5077766;28;20025;-65
2023/09/21 05:37:53;;;;;;;7.68;5.28;;;;;;;19.99;80.78;99983.84;5078852;28;20028;-65
2023/09/21 05:40:19;;;;;;;10.55;5.30;;;;;;;20.10;81.13;99993.88;5078618;28;20039;-64
2023/09/21 05:42:45;;;;;;;33.03;9.07;;;;;;;20.29;80.55;100009.03;5078633;28;20051;-64
2023/09/21 05:45:10;;;;;;;9.23;5.57;;;;;;;20.27;79.58;100005.75;5078801;28;20441;-64
2023/09/21 05:47:37;;;;;;;7.05;5.43;;;;;;;20.36;79.68;100009.00;5077266;28;20040;-66
2023/09/21 05:50:05;;;;;;;7.10;5.53;;;;;;;20.54;79.63;100008.25;5076456;28;20032;-66
2023/09/21 05:52:32;;;;;;;164.88;21.00;;;;;;;20.69;78.79;100019.50;5064295;28;20048;-64
2023/09/21 05:54:57;;;;;;;16.70;6.72;;;;;;;20.83;78.44;100023.75;5056942;28;20063;-64
2023/09/21 05:57:23;;;;;;;10.32;6.68;;;;;;;20.97;77.41;100025.25;5056883;28;20037;-64
2023/09/21 05:59:49;;;;;;;12.88;7.25;;;;;;;21.08;76.93;100025.56;5056773;28;20036;-64
2023/09/21 06:02:15;;;;;;;7.63;6.18;;;;;;;21.15;76.66;100029.00;5056678;28;20393;-66
2023/09/21 06:04:41;;;;;;;12.60;6.85;;;;;;;21.23;76.21;100026.03;5056902;28;20029;-64
2023/09/21 06:07:07;;;;;;;8.18;6.25;;;;;;;21.19;75.88;100022.94;5055906;28;20259;-64
2023/09/21 06:09:33;;;;;;;13.13;6.43;;;;;;;21.20;76.03;100019.19;5056574;28;20041;-64
2023/09/21 06:11:59;;;;;;;39.10;9.13;;;;;;;21.14;76.38;100016.59;5056483;28;20041;-64
2023/09/21 06:14:25;;;;;;;10.10;6.32;;;;;;;20.67;78.92;100019.72;5056592;28;20033;-64
2023/09/21 06:16:51;;;;;;;8.93;5.80;;;;;;;20.35;80.98;100016.22;5056509;28;20399;-65
2023/09/21 06:19:18;;;;;;;7.90;6.28;;;;;;;20.00;83.29;100015.88;5056694;28;20040;-66
2023/09/21 06:21:45;;;;;;;8.63;5.90;;;;;;;20.08;82.78;100017.47;5056394;28;20218;-64
2023/09/21 06:24:11;;;;;;;11.27;5.78;;;;;;;19.96;83.33;100008.47;5056652;28;20396;-66
2023/09/21 06:26:36;;;;;;;9.50;5.82;;;;;;;19.89;84.04;100010.34;5056299;28;20041;-64
2023/09/21 06:29:03;;;;;;;114.03;18.33;;;;;;;20.03;84.09;100020.81;5056276;28;20040;-66
2023/09/21 06:31:29;;;;;;;8.18;6.68;;;;;;;20.20;83.51;100022.97;5057308;28;20043;-66
2023/09/21 06:33:58;;;;;;;8.23;5.95;;;;;;;20.42;82.33;100010.84;5056975;28;20041;-64
2023/09/21 06:36:28;;;;;;;9.68;6.40;;;;;;;20.62;81.89;100027.63;5056265;28;20049;-65
2023/09/21 06:38:54;;;;;;;9.10;5.80;;;;;;;20.72;81.06;100036.03;5056984;28;20104;-65
2023/09/21 06:41:20;;;;;;;9.95;6.32;;;;;;;20.90;79.74;100020.97;5056138;28;20362;-66
2023/09/21 06:43:45;;;;;;;12.77;6.50;;;;;;;20.97;79.17;100017.19;5057129;28;20218;-66
2023/09/21 06:46:11;;;;;;;9.77;6.18;;;;;;;21.00;79.17;100005.97;5055856;28;20037;-66
2023/09/21 06:48:38;;;;;;;7.53;5.82;;;;;;;20.84;80.03;100014.63;5057125;28;20033;-66
2023/09/21 06:51:07;;;;;;;9.65;5.95;;;;;;;20.86;79.95;100014.41;5058959;28;20226;-65
2023/09/21 06:53:34;;;;;;;9.25;6.63;;;;;;;20.84;79.55;100019.19;5076491;28;20033;-64
2023/09/21 06:56:00;;;;;;;10.18;6.95;;;;;;;20.81;79.71;100015.06;5076680;28;20089;-66
2023/09/21 06:58:25;;;;;;;8.07;6.43;;;;;;;20.93;79.56;100010.59;5057771;28;20249;-66
2023/09/21 07:00:51;;;;;;;9.43;6.00;;;;;;;20.82;80.28;100010.50;5075689;28;20032;-65
2023/09/21 07:03:18;;;;;;;9.30;6.90;;;;;;;20.82;80.25;100010.50;5075502;28;20111;-66
2023/09/21 07:05:48;;;;;;;13.05;7.20;;;;;;;20.77;80.57;100013.00;5075738;28;20067;-66
2023/09/21 07:08:14;;;;;;;10.10;7.05;;;;;;;20.86;80.05;100011.72;5075580;28;20054;-66
2023/09/21 07:10:39;;;;;;;13.77;7.35;;;;;;;20.80;80.91;100024.16;5075529;28;20028;-66
2023/09/21 07:13:06;;;;;;;8.27;6.78;;;;;;;20.93;80.48;100023.22;5075885;28;20365;-65
2023/09/21 07:15:33;;;;;;;9.75;6.88;;;;;;;20.89;80.55;100016.66;5075692;28;20065;-64
2023/09/21 07:17:59;;;;;;;17.58;7.75;;;;;;;20.93;80.59;100018.66;5075655;28;20036;-65
2023/09/21 07:20:26;;;;;;;27.15;8.57;;;;;;;20.92;81.63;100018.88;5075858;28;20029;-65
2023/09/21 07:22:52;;;;;;;13.95;8.15;;;;;;;21.06;80.78;100009.63;5076307;28;20040;-66
2023/09/21 07:25:18;;;;;;;12.15;6.88;;;;;;;21.35;80.17;100016.97;5075809;28;20040;-66
2023/09/21 07:27:44;;;;;;;9.95;6.85;;;;;;;21.52;78.37;100024.44;5074740;28;20065;-66
2023/09/21 07:30:10;;;;;;;8.55;6.57;;;;;;;21.71;77.77;100022.53;5075277;28;20091;-64
2023/09/21 07:32:35;;;;;;;9.45;6.63;;;;;;;21.80;76.73;100021.19;5075431;28;20044;-65
2023/09/21 07:35:06;;;;;;;10.82;6.93;;;;;;;21.93;76.35;100023.72;5075994;28;20044;-64
2023/09/21 07:37:31;;;;;;;14.48;8.85;;;;;;;21.81;76.10;100028.22;5075342;28;20330;-66
2023/09/21 07:39:57;;;;;;;8.55;6.78;;;;;;;21.86;75.53;100031.91;5074800;28;20135;-66
2023/09/21 07:42:22;;;;;;;10.98;6.47;;;;;;;21.84;75.36;100025.06;5074957;28;20407;-66
2023/09/21 07:44:48;;;;;;;8.02;6.45;;;;;;;21.92;75.07;100022.06;5074968;28;20362;-66
2023/09/21 07:47:14;;;;;;;11.30;6.57;;;;;;;22.05;74.35;100016.53;5074940;28;20237;-64
2023/09/21 07:49:39;;;;;;;11.55;6.20;;;;;;;22.13;74.68;100026.16;5073512;28;20028;-65
2023/09/21 07:52:07;;;;;;;9.10;6.18;;;;;;;22.21;74.25;100025.81;5071151;28;20072;-66
2023/09/21 07:54:33;;;;;;;9.48;6.45;;;;;;;22.26;74.00;100021.38;5054846;28;20064;-66
2023/09/21 07:56:59;;;;;;;251.45;31.05;;;;;;;22.37;73.63;100025.16;5054423;28;20083;-66
2023/09/21 07:59:25;;;;;;;77.78;13.95;;;;;;;22.53;73.09;100026.34;5054986;28;20322;-66
2023/09/21 08:01:51;;;;;;;32.55;9.27;;;;;;;22.62;72.75;100014.16;5054569;28;20037;-67
2023/09/21 08:04:17;;;;;;;28.48;9.15;;;;;;;22.60;72.36;100014.38;5054825;28;20709;-66
2023/09/21 08:06:43;;;;;;;13.20;7.43;;;;;;;22.69;71.82;100014.03;5054732;28;20095;-64
2023/09/21 08:09:08;;;;;;;11.38;7.18;;;;;;;22.72;71.76;100019.78;5054480;28;20037;-64
2023/09/21 08:11:34;;;;;;;34.72;8.65;;;;;;;22.50;72.00;100016.84;5054314;28;20264;-66
2023/09/21 08:13:59;;;;;;;12.90;6.50;;;;;;;22.52;72.55;100012.03;5054326;28;20045;-64
2023/09/21 08:16:27;;;;;;;10.55;6.28;;;;;;;22.66;73.67;100007.22;5053660;28;20410;-64
2023/09/21 08:18:53;;;;;;;16.40;7.30;;;;;;;22.76;73.00;100003.94;5053801;28;20335;-64
2023/09/21 08:21:18;;;;;;;14.20;7.93;;;;;;;22.65;72.00;99994.78;5053842;28;20079;-64
2023/09/21 08:23:46;;;;;;;17.88;7.60;;;;;;;22.65;72.38;99994.78;5054067;28;20094;-66
2023/09/21 08:26:13;;;;;;;13.25;6.55;;;;;;;22.67;72.46;99998.06;5053962;28;20045;-64
2023/09/21 08:28:39;;;;;;;11.73;6.70;;;;;;;22.67;72.28;100006.16;5053695;28;20334;-64
2023/09/21 08:31:04;;;;;;;8.82;6.45;;;;;;;22.68;71.85;100007.00;5054090;28;20098;-64
2023/09/21 08:33:30;;;;;;;10.10;6.00;;;;;;;22.73;71.27;100016.03;5054164;28;20071;-64
2023/09/21 08:35:55;;;;;;;9.80;6.50;;;;;;;22.83;71.83;100002.78;5053951;28;20025;-66
2023/09/21 08:38:21;;;;;;;12.55;6.53;;;;;;;22.87;73.11;100011.25;5054574;28;20365;-66
2023/09/21 08:40:52;;;;;;;11.77;5.63;;;;;;;22.99;73.19;100012.09;5053968;28;20338;-64
2023/09/21 08:43:25;;;;;;;8.63;5.97;;;;;;;23.01;72.03;100012.66;5053997;28;20318;-67
2023/09/21 08:45:51;;;;;;;11.85;6.28;;;;;;;23.12;72.01;100003.72;5053395;28;20281;-65
2023/09/21 08:48:20;;;;;;;6.90;5.28;;;;;;;23.17;69.35;99998.44;5053334;28;20052;-67
2023/09/21 08:50:48;;;;;;;12.73;8.43;;;;;;;23.19;69.32;99993.63;5053945;28;20342;-67
2023/09/21 08:53:18;;;;;;;12.20;8.10;;;;;;;23.32;69.46;99997.94;5073457;28;20079;-65
2023/09/21 08:55:48;;;;;;;8.60;6.80;;;;;;;23.42;69.32;99997.31;5073655;28;20111;-66
2023/09/21 08:58:20;;;;;;;9.30;7.18;;;;;;;23.50;68.46;99992.34;5073520;28;20274;-66
2023/09/21 09:00:47;;;;;;;11.25;6.88;;;;;;;23.61;69.71;99990.69;5073894;28;20037;-64
2023/09/21 09:03:13;;;;;;;10.63;6.97;;;;;;;23.71;69.23;99993.59;5074224;28;20045;-65
2023/09/21 09:05:38;;;;;;;12.32;6.22;;;;;;;23.78;68.78;99994.25;5074649;28;20040;-65
2023/09/21 09:08:04;;;;;;;12.20;6.00;;;;;;;23.83;68.62;99996.25;5074598;28;20090;-66
2023/09/21 09:10:29;;;;;;;10.70;6.13;;;;;;;23.87;68.58;99984.69;5076123;28;20070;-66
2023/09/21 09:13:07;;;;;;;14.60;7.35;;;;;;;23.85;68.86;99986.00;5076903;28;20085;-67
2023/09/21 09:15:34;;;;;;;8.98;6.32;;;;;;;23.96;67.48;99979.75;5076982;28;20097;-66
2023/09/21 09:18:07;;;;;;;62.78;12.57;;;;;;;23.94;66.17;99970.22;5077196;28;20107;-64
2023/09/21 09:20:36;;;;;;;33.72;9.55;;;;;;;23.99;66.30;99973.03;5076962;28;20036;-65
2023/09/21 09:23:03;;;;;;;14.13;7.15;;;;;;;24.00;65.71;99971.97;5076109;28;20111;-65
2023/09/21 09:25:29;;;;;;;23.20;8.60;;;;;;;24.09;65.82;99967.78;5076672;28;20040;-64
2023/09/21 09:27:55;;;;;;;10.57;6.40;;;;;;;24.12;67.99;99970.81;5076444;28;20101;-66
2023/09/21 09:30:23;;;;;;;11.82;6.35;;;;;;;24.15;67.17;99972.22;5076817;28;20353;-65
2023/09/21 09:32:51;;;;;;;11.63;7.20;;;;;;;24.26;66.03;99962.38;5077324;28;20346;-66
2023/09/21 09:35:17;;;;;;;9.60;6.30;;;;;;;24.34;65.63;99970.94;5077058;28;20282;-66
2023/09/21 09:37:44;;;;;;;17.35;6.80;;;;;;;24.33;66.93;99958.47;5077506;28;20082;-65
2023/09/21 09:40:14;;;;;;;10.98;5.90;;;;;;;24.43;66.48;99958.63;5078527;28;20039;-64
2023/09/21 09:42:41;;;;;;;11.00;6.78;;;;;;;24.52;65.20;99957.13;5077658;28;20033;-65
2023/09/21 09:45:26;;;;;;;10.32;5.32;;;;;;;24.49;64.18;99957.63;5077145;28;20044;-66
2023/09/21 09:47:56;;;;;;;12.35;6.65;;;;;;;24.60;64.58;99955.06;5076234;28;20028;-67
2023/09/21 09:50:24;;;;;;;7.13;5.00;;;;;;;24.61;62.82;99952.13;5076458;28;20051;-66
2023/09/21 09:53:17;;;;;;;7.55;5.53;;;;;;;24.55;64.06;99946.88;5069369;28;20670;-64
2023/09/21 09:55:45;;;;;;;7.10;5.50;;;;;;;24.52;63.06;99949.00;5056298;28;20065;-64
2023/09/21 09:58:10;;;;;;;8.30;4.90;;;;;;;24.45;63.33;99947.56;5057580;28;20463;-66
2023/09/21 10:00:39;;;;;;;8.10;5.60;;;;;;;24.58;63.22;99947.19;5057382;28;20021;-65
2023/09/21 10:03:07;;;;;;;13.30;5.15;;;;;;;24.58;62.62;99935.56;5057699;28;20067;-66
2023/09/21 10:05:35;;;;;;;15.65;6.15;;;;;;;24.63;61.57;99939.16;5057542;28;20059;-65
2023/09/21 10:08:03;;;;;;;6.13;4.90;;;;;;;24.68;61.72;99933.81;5057830;28;20104;-66
2023/09/21 10:10:36;;;;;;;9.13;5.28;;;;;;;24.70;61.17;99928.16;5058164;28;20036;-65
2023/09/21 10:13:02;;;;;;;9.82;5.72;;;;;;;24.62;61.86;99928.56;5057170;28;20096;-64
2023/09/21 10:15:29;;;;;;;7.07;4.70;;;;;;;24.70;61.01;99920.03;5056778;28;20044;-66
2023/09/21 10:17:57;;;;;;;5.72;5.00;;;;;;;24.82;61.08;99915.31;5056770;28;20033;-66
2023/09/21 10:20:25;;;;;;;6.30;4.45;;;;;;;24.83;62.71;99909.63;5056483;28;20042;-66
2023/09/21 10:22:58;;;;;;;46.03;8.82;;;;;;;24.96;61.51;99907.63;5056264;28;20047;-64
2023/09/21 10:25:38;;;;;;;14.95;6.03;;;;;;;25.02;61.35;99907.50;5056051;28;20032;-64
2023/09/21 10:28:35;;;;;;;7.65;4.95;;;;;;;25.16;60.31;99899.81;5056515;28;20043;-66
2023/09/21 10:31:06;;;;;;;7.53;5.28;;;;;;;25.26;61.89;99899.91;5056632;28;20025;-66
2023/09/21 10:34:08;;;;;;;7.22;5.35;;;;;;;25.37;61.30;99900.84;5057258;28;20069;-66
2023/09/21 10:36:40;;;;;;;7.25;5.20;;;;;;;25.40;61.37;99893.00;4995270;28;20074;-64
2023/09/21 10:39:05;;;;;;;7.20;4.80;;;;;;;25.48;61.52;99902.56;5047621;28;20048;-64
2023/09/21 10:41:32;;;;;;;10.25;5.15;;;;;;;25.53;60.21;99886.38;5058486;28;20037;-66
2023/09/21 10:44:00;;;;;;;10.25;5.43;;;;;;;25.52;58.69;99884.72;5058011;28;20063;-65
2023/09/21 10:46:26;;;;;;;7.15;4.93;;;;;;;25.49;57.24;99868.97;5057823;28;20051;-64
2023/09/21 10:49:19;;;;;;;7.60;5.20;;;;;;;25.48;56.66;99871.94;5058145;28;20289;-65
2023/09/21 10:51:46;;;;;;;5.70;4.70;;;;;;;25.51;56.41;99860.59;5061704;28;20156;-66
2023/09/21 10:54:12;;;;;;;6.05;5.00;;;;;;;25.51;56.98;99857.88;5077042;28;20823;-66
2023/09/21 10:56:38;;;;;;;8.02;4.40;;;;;;;25.43;57.16;99859.16;5077063;28;20575;-66
2023/09/21 10:59:04;;;;;;;15.18;5.03;;;;;;;25.47;55.97;99846.72;5078039;28;20035;-66
2023/09/21 11:01:30;;;;;;;7.28;5.20;;;;;;;25.50;56.54;99838.06;5077715;28;20051;-64
2023/09/21 11:03:55;;;;;;;7.10;4.38;;;;;;;25.59;55.81;99838.41;5076064;28;20044;-64
2023/09/21 11:06:21;;;;;;;20.45;6.05;;;;;;;25.68;56.92;99840.44;5077628;28;20078;-67
2023/09/21 11:08:47;;;;;;;9.25;4.75;;;;;;;25.78;56.51;99836.97;5077330;28;20036;-66
2023/09/21 11:11:14;;;;;;;5.45;4.50;;;;;;;25.77;56.35;99833.44;5077560;28;20040;-66
2023/09/21 11:13:40;;;;;;;9.13;4.90;;;;;;;25.84;56.96;99830.53;5077543;28;20735;-66
2023/09/21 11:16:06;;;;;;;51.35;9.98;;;;;;;25.86;55.13;99820.22;5077591;28;20040;-64
2023/09/21 11:18:32;;;;;;;7.18;5.05;;;;;;;25.83;54.01;99820.75;5077565;28;20033;-64
2023/09/21 11:20:59;;;;;;;9.45;5.05;;;;;;;25.76;54.44;99820.97;5077551;28;20024;-64
2023/09/21 11:23:24;;;;;;;18.25;5.88;;;;;;;25.75;53.95;99807.66;5077395;28;20032;-64
2023/09/21 11:25:50;;;;;;;6.88;4.65;;;;;;;25.73;54.46;99805.22;5077128;28;20070;-66
2023/09/21 11:28:18;;;;;;;6.07;4.75;;;;;;;25.76;54.22;99793.03;5077351;28;20043;-66
2023/09/21 11:30:45;;;;;;;6.07;4.60;;;;;;;25.74;54.39;99795.19;5077640;28;20102;-64